Time;durP1;ratioP1;P1;durP2;ratioP2;P2;SDS_P1;SDS_P2;PMS_P1;PMS_P2;Temp;Humidity;BMP_temperature;BMP_pressure;BME280_temperature;BME280_humidity;BME280_pressure;Samples;Min_cycle;Max_cycle;Signal;HPM_P1;HPM_P2
2022/06/19 00:01:39;;;;;;;7.43;1.60;;;;;;;19.96;58.63;100927.09;5032604;28;20163;-57
2022/06/19 00:04:06;;;;;;;9.80;1.70;;;;;;;20.02;58.62;100924.41;5032714;28;20471;-57
2022/06/19 00:06:34;;;;;;;8.82;1.98;;;;;;;19.96;58.69;100925.38;5032124;28;21897;-57
2022/06/19 00:09:00;;;;;;;7.55;1.45;;;;;;;19.99;58.54;100912.28;5031511;28;20651;-54
2022/06/19 00:11:25;;;;;;;7.35;1.52;;;;;;;19.81;58.60;100904.63;5035080;28;20033;-55
2022/06/19 00:13:51;;;;;;;11.95;2.10;;;;;;;19.78;58.47;100900.31;5032425;28;20588;-58
2022/06/19 00:16:17;;;;;;;8.07;1.85;;;;;;;19.62;58.21;100903.91;5016980;28;20079;-59
2022/06/19 00:18:43;;;;;;;10.23;1.67;;;;;;;19.58;58.72;100904.81;5027115;28;20630;-56
2022/06/19 00:21:10;;;;;;;9.88;1.88;;;;;;;19.40;58.93;100905.78;5012981;28;20029;-55
2022/06/19 00:23:36;;;;;;;7.40;1.90;;;;;;;19.40;58.85;100915.34;5030335;28;20143;-57
2022/06/19 00:26:02;;;;;;;8.38;1.98;;;;;;;19.31;58.66;100905.00;5032849;28;20127;-57
2022/06/19 00:28:28;;;;;;;10.20;2.00;;;;;;;19.12;58.85;100910.34;5032495;28;20037;-57
2022/06/19 00:30:53;;;;;;;7.65;2.05;;;;;;;19.13;58.45;100926.84;5037084;28;20037;-57
2022/06/19 00:33:19;;;;;;;11.30;1.92;;;;;;;19.17;58.50;100939.88;5032267;28;20083;-57
2022/06/19 00:35:45;;;;;;;12.35;2.20;;;;;;;19.21;57.60;100936.34;5032561;28;20422;-56
2022/06/19 00:38:11;;;;;;;10.27;1.85;;;;;;;19.09;57.25;100925.13;5032621;28;20029;-58
2022/06/19 00:40:36;;;;;;;12.95;2.25;;;;;;;19.02;56.96;100925.16;5034585;28;20579;-56
2022/06/19 00:43:02;;;;;;;8.70;2.28;;;;;;;19.03;56.69;100924.28;5031268;28;20033;-51
2022/06/19 00:45:38;;;;;;;13.35;2.10;;;;;;;19.11;56.42;100921.66;5029274;28;20029;-55
2022/06/19 00:48:11;;;;;;;5.88;1.85;;;;;;;19.03;56.10;100920.81;5029718;28;20072;-57
2022/06/19 00:50:38;;;;;;;12.80;2.00;;;;;;;18.97;55.80;100934.75;5031788;28;20057;-55
2022/06/19 00:53:08;;;;;;;10.85;2.20;;;;;;;18.93;55.70;100932.19;5030498;28;20037;-58
2022/06/19 00:55:39;;;;;;;11.38;2.22;;;;;;;18.82;55.70;100923.53;5027584;28;20025;-57
2022/06/19 00:58:13;;;;;;;9.18;2.30;;;;;;;18.89;55.59;100917.44;5027149;28;20025;-57
2022/06/19 01:00:40;;;;;;;12.63;2.00;;;;;;;18.86;55.41;100928.72;5032657;28;20032;-57
2022/06/19 01:03:11;;;;;;;11.55;2.42;;;;;;;18.78;55.11;100917.47;5029254;28;20504;-56
2022/06/19 01:05:40;;;;;;;9.13;2.08;;;;;;;18.61;56.09;100912.28;5027877;28;20056;-56
2022/06/19 01:08:06;;;;;;;11.25;2.40;;;;;;;18.66;55.57;100907.94;5028244;28;20032;-56
2022/06/19 01:10:36;;;;;;;14.45;2.33;;;;;;;18.59;56.16;100919.25;5030499;28;20420;-53
2022/06/19 01:13:02;;;;;;;9.50;2.00;;;;;;;18.74;56.09;100920.97;5025400;28;20044;-54
2022/06/19 01:15:27;;;;;;;10.48;2.40;;;;;;;18.78;56.46;100948.72;5030889;28;20033;-56
2022/06/19 01:17:57;;;;;;;11.95;2.47;;;;;;;18.85;56.33;101031.19;5029796;28;20955;-58
2022/06/19 01:20:25;;;;;;;9.18;1.70;;;;;;;18.83;55.32;101107.66;5026453;28;20056;-57
2022/06/19 01:22:53;;;;;;;10.85;1.85;;;;;;;18.79;54.89;101087.66;5025430;28;20032;-56
2022/06/19 01:25:21;;;;;;;8.40;1.80;;;;;;;18.67;53.63;100997.41;5028001;28;20037;-56
2022/06/19 01:30:44;;;;;;;10.65;1.88;;;;;;;18.69;53.35;101042.56;5031503;28;20071;-55
2022/06/19 01:33:14;;;;;;;9.95;2.05;;;;;;;18.67;52.66;101047.75;5026835;28;20034;-56
2022/06/19 01:35:41;;;;;;;12.63;2.03;;;;;;;18.51;52.29;101013.91;5029656;28;20033;-54
2022/06/19 01:38:13;;;;;;;11.35;1.80;;;;;;;18.44;52.34;100981.78;5025457;28;20063;-54
2022/06/19 01:40:41;;;;;;;10.85;2.08;;;;;;;18.40;53.07;101022.59;5028939;28;20417;-56
2022/06/19 01:43:06;;;;;;;9.55;1.95;;;;;;;18.49;52.27;101047.75;5025803;28;20041;-55
2022/06/19 01:45:32;;;;;;;11.52;2.47;;;;;;;18.49;51.95;101032.13;5029577;28;20025;-57
2022/06/19 01:47:58;;;;;;;13.50;2.10;;;;;;;18.59;51.95;101038.19;5025614;28;20063;-56
2022/06/19 01:50:26;;;;;;;12.13;2.30;;;;;;;18.47;51.69;101039.06;5029825;28;20421;-56
2022/06/19 01:52:56;;;;;;;10.80;2.07;;;;;;;18.47;50.47;101028.66;5029091;28;22682;-56
2022/06/19 01:55:28;;;;;;;12.98;2.33;;;;;;;18.18;50.84;101026.94;5026350;28;20776;-58
2022/06/19 01:57:56;;;;;;;11.23;1.92;;;;;;;18.12;51.61;101034.75;5030485;28;20033;-55
2022/06/19 02:00:25;;;;;;;10.02;1.65;;;;;;;18.05;50.54;101030.44;5028400;28;20489;-57
2022/06/19 02:02:58;;;;;;;;;;;;;;;18.33;50.04;101043.44;5030393;28;20393;-54
2022/06/19 02:05:24;;;;;;;9.13;1.70;;;;;;;18.02;49.81;101043.47;5026858;28;19917;-56
2022/06/19 02:07:49;;;;;;;13.27;2.38;;;;;;;17.92;49.40;101044.31;5027455;28;20032;-58
2022/06/19 02:10:15;;;;;;;10.70;2.03;;;;;;;17.95;49.49;101039.09;5031997;28;20037;-57
2022/06/19 02:12:40;;;;;;;10.82;2.10;;;;;;;18.00;49.46;101050.38;5028942;28;20473;-50
2022/06/19 02:15:09;;;;;;;12.45;1.70;;;;;;;18.15;49.03;101045.19;5032535;28;20086;-56
2022/06/19 02:17:38;;;;;;;16.17;2.85;;;;;;;18.17;49.14;101024.34;5030448;28;20393;-53
2022/06/19 02:20:06;;;;;;;11.88;1.83;;;;;;;17.94;49.16;101032.16;5030452;28;20026;-58
2022/06/19 02:22:31;;;;;;;11.23;1.83;;;;;;;18.02;49.83;101040.84;5030173;28;20034;-56
2022/06/19 02:24:57;;;;;;;7.82;1.80;;;;;;;17.92;49.06;101032.16;5032887;28;20030;-57
2022/06/19 02:27:25;;;;;;;9.43;1.55;;;;;;;17.94;48.97;101029.56;5027491;28;20513;-58
2022/06/19 02:29:51;;;;;;;14.98;1.90;;;;;;;17.78;48.28;101043.44;5032641;28;20052;-58
2022/06/19 02:32:23;;;;;;;9.55;2.15;;;;;;;17.82;48.74;101045.16;5029713;28;20069;-54
2022/06/19 02:34:50;;;;;;;9.05;1.75;;;;;;;17.75;48.17;101062.50;5033687;28;20054;-57
2022/06/19 02:37:21;;;;;;;8.30;1.60;;;;;;;17.92;47.85;101054.72;5031768;28;20441;-57
2022/06/19 02:40:08;;;;;;;7.88;1.80;;;;;;;18.04;48.38;101053.84;5030067;28;20719;-56
2022/06/19 02:42:38;;;;;;;11.82;1.88;;;;;;;18.02;48.16;101056.47;5026406;28;20037;-55
2022/06/19 02:45:13;;;;;;;7.68;1.63;;;;;;;18.07;47.75;101054.72;5032718;28;20485;-55
2022/06/19 02:47:39;;;;;;;8.20;1.40;;;;;;;18.13;47.54;101044.31;5025908;28;20363;-57
2022/06/19 02:50:07;;;;;;;8.77;1.70;;;;;;;18.03;47.61;101036.53;5032668;28;20029;-56
2022/06/19 02:52:32;;;;;;;7.40;1.52;;;;;;;18.10;47.74;101031.31;5033137;28;20064;-54
2022/06/19 02:54:58;;;;;;;11.18;1.70;;;;;;;18.05;48.60;101037.38;5026740;28;20448;-57
2022/06/19 02:57:25;;;;;;;11.13;1.77;;;;;;;17.89;47.70;101039.94;5030369;28;20030;-56
2022/06/19 02:59:52;;;;;;;8.80;1.63;;;;;;;17.99;48.12;101071.19;5035258;28;20039;-54
2022/06/19 03:02:17;;;;;;;10.23;1.75;;;;;;;17.96;49.04;101150.13;5029703;28;20045;-56
2022/06/19 03:04:51;;;;;;;9.90;1.45;;;;;;;17.99;48.25;101170.06;5026356;28;20528;-55
2022/06/19 03:07:16;;;;;;;10.60;1.60;;;;;;;17.99;48.61;101138.84;5028805;28;20037;-56
2022/06/19 03:09:42;;;;;;;7.25;1.60;;;;;;;18.02;49.58;101121.53;5029985;28;20029;-55
2022/06/19 03:12:10;;;;;;;7.65;1.85;;;;;;;18.07;48.02;101085.94;5028766;28;20032;-55
2022/06/19 03:14:35;;;;;;;7.93;1.50;;;;;;;18.02;47.38;101085.09;5028887;28;20026;-54
2022/06/19 03:17:00;;;;;;;7.25;1.30;;;;;;;17.99;46.82;101084.19;5033776;28;20036;-55
2022/06/19 03:19:26;;;;;;;7.25;1.10;;;;;;;17.95;46.62;101072.91;5032012;28;20119;-56
2022/06/19 03:21:51;;;;;;;6.22;1.30;;;;;;;17.85;46.39;101051.25;5032406;28;20501;-55
2022/06/19 03:24:17;;;;;;;6.68;1.10;;;;;;;17.76;46.25;101030.41;5030697;28;20088;-54
2022/06/19 03:26:42;;;;;;;7.30;1.20;;;;;;;17.57;46.35;101031.22;5033501;28;20033;-56
2022/06/19 03:29:08;;;;;;;5.97;0.90;;;;;;;17.48;45.87;101052.00;5025497;28;20039;-56
2022/06/19 03:31:33;;;;;;;7.97;1.23;;;;;;;17.55;46.73;101079.75;5035284;28;20136;-54
2022/06/19 03:33:58;;;;;;;9.13;1.13;;;;;;;17.51;46.20;101088.41;5036042;28;20416;-56
2022/06/19 03:36:24;;;;;;;4.95;1.00;;;;;;;17.46;46.96;101064.13;5028595;28;20037;-55
2022/06/19 03:38:50;;;;;;;8.00;1.00;;;;;;;17.46;46.52;101033.78;5035290;28;20052;-55
2022/06/19 03:41:16;;;;;;;5.70;0.90;;;;;;;17.46;46.12;101012.13;5033910;28;20178;-57
2022/06/19 03:43:41;;;;;;;6.45;1.00;;;;;;;17.37;46.64;101005.19;5036058;28;20040;-51
2022/06/19 03:46:14;;;;;;;8.32;1.35;;;;;;;17.42;46.82;100993.06;5025846;28;20631;-54
2022/06/19 03:48:41;;;;;;;10.05;1.05;;;;;;;17.27;46.36;100965.28;5032370;28;20059;-57
2022/06/19 03:51:07;;;;;;;6.45;0.73;;;;;;;17.37;46.77;100998.25;5032736;28;20143;-52
2022/06/19 03:53:32;;;;;;;3.67;0.98;;;;;;;17.35;46.32;101045.88;5030245;28;20408;-53
2022/06/19 03:55:58;;;;;;;8.90;1.05;;;;;;;17.37;46.46;101102.22;5032981;28;20037;-54
2022/06/19 03:58:23;;;;;;;3.70;0.90;;;;;;;17.49;45.53;101110.94;5033263;28;20053;-55
2022/06/19 04:00:49;;;;;;;8.23;0.95;;;;;;;17.45;45.31;101060.66;5033338;28;20045;-56
2022/06/19 04:03:14;;;;;;;6.10;0.98;;;;;;;17.30;44.93;101081.41;5031474;28;20037;-53
2022/06/19 04:05:40;;;;;;;4.38;0.95;;;;;;;17.32;44.78;101040.69;5032513;28;20045;-55
2022/06/19 04:08:05;;;;;;;6.40;0.90;;;;;;;17.26;45.04;101005.16;5030306;28;20037;-57
2022/06/19 04:10:31;;;;;;;5.43;1.27;;;;;;;17.22;44.96;100993.00;5033273;28;20112;-55
2022/06/19 04:12:56;;;;;;;7.75;1.20;;;;;;;17.18;45.13;100977.41;5032020;28;20044;-54
2022/06/19 04:15:22;;;;;;;7.43;1.10;;;;;;;17.13;45.47;100962.66;5034618;28;20041;-53
2022/06/19 04:17:48;;;;;;;7.68;1.25;;;;;;;17.02;45.52;100945.31;5032645;28;20738;-51
2022/06/19 04:20:14;;;;;;;6.45;1.20;;;;;;;16.96;46.12;100924.50;5031591;28;20029;-53
2022/06/19 04:22:40;;;;;;;6.88;1.10;;;;;;;16.91;46.64;100889.88;5029271;28;20043;-56
2022/06/19 04:25:13;;;;;;;6.45;1.10;;;;;;;16.83;47.36;100879.47;5017895;28;20094;-55
2022/06/19 04:27:39;;;;;;;8.63;1.23;;;;;;;16.75;48.23;100858.69;5029955;28;20435;-56
2022/06/19 04:30:05;;;;;;;7.53;1.33;;;;;;;16.74;48.31;100845.66;5036336;28;20025;-55
2022/06/19 04:32:30;;;;;;;8.63;1.33;;;;;;;16.78;48.69;100852.63;5033225;28;20061;-57
2022/06/19 04:34:56;;;;;;;12.18;1.42;;;;;;;16.74;49.14;100856.06;5030918;28;20397;-52
2022/06/19 04:37:21;;;;;;;6.07;1.45;;;;;;;16.76;49.87;100868.19;5028978;28;20037;-55
2022/06/19 04:39:46;;;;;;;12.38;1.30;;;;;;;16.81;50.27;100870.81;5026914;28;20067;-54
2022/06/19 04:42:12;;;;;;;9.52;1.40;;;;;;;16.73;49.87;100857.78;5034478;28;20033;-58
2022/06/19 04:44:37;;;;;;;7.75;1.17;;;;;;;16.60;50.09;100864.63;5029800;28;20537;-57
2022/06/19 04:47:04;;;;;;;7.75;1.48;;;;;;;16.50;51.34;100868.09;5032992;28;20142;-55
2022/06/19 04:49:29;;;;;;;7.82;1.17;;;;;;;16.54;51.30;100864.63;5035458;28;20051;-55
2022/06/19 04:51:55;;;;;;;8.18;1.77;;;;;;;16.61;51.48;100832.63;5030737;28;20690;-57
2022/06/19 04:54:20;;;;;;;9.68;1.88;;;;;;;16.62;51.50;100791.94;5029665;28;20030;-55
2022/06/19 04:56:46;;;;;;;9.05;1.55;;;;;;;16.60;51.42;100778.97;5031106;28;20033;-55
2022/06/19 04:59:11;;;;;;;11.20;1.90;;;;;;;16.72;51.46;100803.25;5029480;28;20091;-54
2022/06/19 05:01:39;;;;;;;6.70;1.10;;;;;;;16.81;51.79;100818.88;5032682;28;20029;-57
2022/06/19 05:04:10;;;;;;;14.02;1.20;;;;;;;16.83;51.71;100843.09;5033649;28;20494;-55
2022/06/19 05:06:36;;;;;;;8.18;1.73;;;;;;;16.78;51.17;100843.09;5031971;28;20052;-50
2022/06/19 05:09:01;;;;;;;8.85;1.48;;;;;;;16.84;51.59;100863.88;5032992;28;20033;-52
2022/06/19 05:11:31;;;;;;;10.70;1.48;;;;;;;16.75;51.50;100868.19;5030114;28;20029;-57
2022/06/19 05:13:57;;;;;;;9.65;1.35;;;;;;;16.77;52.08;100858.66;5032095;28;20029;-53
2022/06/19 05:16:23;;;;;;;8.80;1.40;;;;;;;16.80;51.18;100877.72;5035124;28;20513;-50
2022/06/19 05:18:51;;;;;;;7.97;1.23;;;;;;;16.87;51.99;100892.47;5031721;28;20037;-51
2022/06/19 05:21:17;;;;;;;5.28;1.02;;;;;;;17.03;51.50;100924.53;5027533;28;20509;-59
2022/06/19 05:23:45;;;;;;;10.73;1.55;;;;;;;17.13;52.18;100923.69;5032532;28;20059;-57
2022/06/19 05:26:23;;;;;;;9.52;1.30;;;;;;;17.20;51.14;100910.72;5028879;28;20040;-57
2022/06/19 05:28:50;;;;;;;6.93;1.45;;;;;;;17.27;51.01;100918.50;5031678;28;20032;-56
2022/06/19 05:31:16;;;;;;;8.18;1.63;;;;;;;17.35;51.46;100944.50;5030183;28;20024;-54
2022/06/19 05:33:42;;;;;;;6.50;1.50;;;;;;;17.46;52.11;100991.31;5032419;28;20021;-57
2022/06/19 05:36:08;;;;;;;10.43;1.60;;;;;;;17.53;51.26;101003.47;5032640;28;20082;-55
2022/06/19 05:38:33;;;;;;;7.93;1.20;;;;;;;17.55;51.67;101007.81;5033075;28;20041;-57
2022/06/19 05:41:00;;;;;;;8.05;1.17;;;;;;;17.63;51.73;101021.69;5012781;28;20040;-56
2022/06/19 05:43:27;;;;;;;5.72;1.20;;;;;;;17.69;51.04;101016.50;5034402;28;20083;-57
2022/06/19 05:45:58;;;;;;;7.32;1.20;;;;;;;17.81;51.36;101020.88;5026475;28;20124;-55
2022/06/19 05:48:25;;;;;;;9.30;1.50;;;;;;;17.87;51.00;101001.81;5036878;28;20397;-55
2022/06/19 05:51:08;;;;;;;7.03;1.30;;;;;;;17.98;51.30;101015.69;5034101;28;20102;-57
2022/06/19 05:53:38;;;;;;;6.55;1.27;;;;;;;18.01;51.58;101015.69;5031222;28;20033;-55
2022/06/19 05:56:04;;;;;;;8.23;1.50;;;;;;;18.02;51.91;101021.75;5031781;28;20535;-56
2022/06/19 05:58:30;;;;;;;8.00;1.48;;;;;;;17.95;51.03;101039.97;5034610;28;20025;-56
2022/06/19 06:00:55;;;;;;;7.78;1.08;;;;;;;17.92;51.02;101026.09;5031999;28;20785;-53
2022/06/19 06:03:22;;;;;;;7.30;1.30;;;;;;;17.94;51.88;101032.16;5038411;28;20041;-56
2022/06/19 06:05:48;;;;;;;6.80;1.40;;;;;;;18.02;51.36;101053.88;5027457;28;20032;-57
2022/06/19 06:08:15;;;;;;;8.23;1.30;;;;;;;18.06;51.66;101067.72;5032751;28;20482;-56
2022/06/19 06:10:40;;;;;;;6.53;1.27;;;;;;;18.04;51.44;101090.28;5029704;28;20609;-55
2022/06/19 06:13:07;;;;;;;6.30;1.58;;;;;;;18.03;51.48;101080.75;5015801;28;20041;-56
2022/06/19 06:15:32;;;;;;;7.25;1.25;;;;;;;18.05;51.25;101076.41;5033891;28;20433;-61
2022/06/19 06:17:59;;;;;;;9.80;1.45;;;;;;;18.09;51.69;101091.16;5032309;28;20087;-54
2022/06/19 06:20:25;;;;;;;8.35;1.40;;;;;;;18.14;51.52;101087.69;5031152;28;20020;-55
2022/06/19 06:22:51;;;;;;;8.75;1.85;;;;;;;18.19;50.97;101105.91;5027409;28;20044;-56
2022/06/19 06:25:16;;;;;;;8.85;1.50;;;;;;;18.10;50.12;101151.00;5013824;28;20432;-54
2022/06/19 06:27:41;;;;;;;7.05;1.42;;;;;;;18.13;50.45;101161.41;5030757;28;20119;-56
2022/06/19 06:30:07;;;;;;;9.05;1.48;;;;;;;18.16;50.56;101176.19;5011283;28;20029;-62
2022/06/19 06:32:33;;;;;;;9.13;1.40;;;;;;;18.07;50.29;101195.22;5031356;28;20136;-52
2022/06/19 06:34:58;;;;;;;5.07;1.25;;;;;;;18.12;49.55;101200.44;5033402;28;21072;-57
2022/06/19 06:37:23;;;;;;;9.35;1.42;;;;;;;18.13;49.80;101195.25;5028411;28;20032;-54
2022/06/19 06:39:49;;;;;;;5.32;1.05;;;;;;;18.07;49.02;101205.63;5029029;28;20043;-55
2022/06/19 06:42:15;;;;;;;7.38;1.33;;;;;;;18.07;49.59;101252.47;5025564;28;20039;-57
2022/06/19 06:44:40;;;;;;;7.68;1.35;;;;;;;18.07;50.84;101304.53;5023145;28;20035;-55
2022/06/19 06:47:06;;;;;;;9.00;1.40;;;;;;;18.10;49.75;101314.97;5025666;28;20026;-57
2022/06/19 06:49:31;;;;;;;7.85;1.20;;;;;;;18.07;51.88;101286.31;5028627;28;20025;-57
2022/06/19 06:51:56;;;;;;;6.80;1.33;;;;;;;18.08;55.08;101308.91;5025070;28;20037;-57
2022/06/19 06:54:22;;;;;;;8.27;1.30;;;;;;;18.03;53.24;101308.00;5028417;28;20041;-58
2022/06/19 06:56:47;;;;;;;8.18;1.40;;;;;;;18.00;54.41;101307.09;5024331;28;22862;-55
2022/06/19 06:59:13;;;;;;;6.88;1.27;;;;;;;17.90;55.04;101312.28;5011765;28;20493;-55
2022/06/19 07:01:38;;;;;;;6.93;1.23;;;;;;;17.82;56.05;101300.06;5025959;28;20035;-51
2022/06/19 07:04:04;;;;;;;8.32;1.15;;;;;;;17.82;56.97;101300.06;5025410;28;20082;-61
2022/06/19 07:06:31;;;;;;;6.10;1.15;;;;;;;17.76;57.95;101303.50;5010675;28;20029;-55
2022/06/19 07:08:57;;;;;;;7.00;1.30;;;;;;;17.71;58.23;101286.97;5026021;28;20402;-56
2022/06/19 07:11:41;;;;;;;8.13;1.25;;;;;;;17.75;57.58;101300.91;5028172;28;20040;-56
2022/06/19 07:14:08;;;;;;;7.82;1.50;;;;;;;17.64;59.78;101285.19;5016957;28;20116;-55
2022/06/19 07:16:34;;;;;;;9.90;1.38;;;;;;;17.65;61.05;101300.84;5030258;28;20038;-57
2022/06/19 07:18:59;;;;;;;7.03;1.20;;;;;;;17.68;60.37;101305.19;5032751;28;20481;-55
2022/06/19 07:21:24;;;;;;;11.23;1.40;;;;;;;17.67;60.48;101303.44;5027310;28;20041;-56
2022/06/19 07:23:50;;;;;;;7.22;1.13;;;;;;;17.59;61.02;101320.69;5028968;28;20044;-50
2022/06/19 07:26:18;;;;;;;6.82;1.27;;;;;;;17.58;60.89;101356.25;5029313;28;20695;-55
2022/06/19 07:28:44;;;;;;;7.50;1.38;;;;;;;17.58;60.56;101360.56;5031856;28;20082;-56
2022/06/19 07:31:10;;;;;;;9.38;1.50;;;;;;;17.58;61.44;101342.38;5026651;28;20420;-55
2022/06/19 07:33:36;;;;;;;6.55;1.35;;;;;;;17.56;62.09;101308.56;5030096;28;20076;-54
2022/06/19 07:36:03;;;;;;;9.88;1.63;;;;;;;17.55;62.34;101262.63;5027574;28;20025;-51
2022/06/19 07:38:29;;;;;;;5.75;1.25;;;;;;;17.42;62.88;101240.03;5031828;28;20033;-56
2022/06/19 07:40:54;;;;;;;10.07;1.88;;;;;;;17.49;63.67;101231.41;5026688;28;20036;-54
2022/06/19 07:43:19;;;;;;;8.38;1.67;;;;;;;17.46;64.21;101189.75;5032063;28;20067;-55
2022/06/19 07:45:45;;;;;;;9.57;1.88;;;;;;;17.39;65.04;101130.81;5027787;28;20095;-54
2022/06/19 07:50:54;;;;;;;9.90;1.50;;;;;;;17.28;66.42;101138.56;5030976;28;20535;-51
2022/06/19 07:53:20;;;;;;;10.88;1.65;;;;;;;17.18;66.86;101136.78;5026552;28;20049;-51
2022/06/19 07:55:47;;;;;;;11.65;1.70;;;;;;;17.14;68.35;101124.63;5028779;28;20025;-55
2022/06/19 07:58:12;;;;;;;8.80;1.50;;;;;;;17.03;68.31;101114.16;5023000;28;20079;-53
2022/06/19 08:00:38;;;;;;;13.38;1.60;;;;;;;17.03;68.23;101132.34;5027150;28;20124;-52
2022/06/19 08:03:04;;;;;;;9.70;1.55;;;;;;;17.07;70.48;101193.00;5025802;28;20045;-55
2022/06/19 08:05:34;;;;;;;10.38;1.85;;;;;;;17.03;69.60;101256.19;5027971;28;20041;-57
2022/06/19 08:08:01;;;;;;;9.52;1.95;;;;;;;17.05;70.55;101276.16;5028625;28;20025;-53
2022/06/19 08:10:30;;;;;;;10.45;2.13;;;;;;;17.10;70.46;101269.22;5029658;28;20026;-54
2022/06/19 08:12:56;;;;;;;9.18;1.77;;;;;;;17.13;69.43;101243.28;5028042;28;20091;-54
2022/06/19 08:15:21;;;;;;;10.80;1.90;;;;;;;17.20;69.91;101232.94;5028738;28;20793;-56
2022/06/19 08:17:47;;;;;;;10.20;1.90;;;;;;;17.15;70.27;101236.38;5028134;28;20033;-56
2022/06/19 08:20:13;;;;;;;11.82;2.05;;;;;;;17.17;70.09;101241.59;5026162;28;20041;-55
2022/06/19 08:22:40;;;;;;;10.38;1.85;;;;;;;17.23;71.21;101206.97;5026003;28;20492;-55
2022/06/19 08:25:07;;;;;;;11.48;2.00;;;;;;;17.18;70.69;101187.91;5026756;28;20107;-56
2022/06/19 08:27:36;;;;;;;10.32;2.28;;;;;;;17.24;71.38;101250.31;5027070;28;20482;-51
2022/06/19 08:30:08;;;;;;;10.60;2.58;;;;;;;17.21;72.52;101265.84;5025324;28;20033;-55
2022/06/19 08:32:34;;;;;;;14.60;2.40;;;;;;;17.24;71.89;101219.13;5022359;28;20044;-52
2022/06/19 08:34:59;;;;;;;12.25;2.67;;;;;;;17.12;72.20;101207.78;5020801;28;20033;-53
2022/06/19 08:37:24;;;;;;;13.43;2.40;;;;;;;17.19;73.69;101215.63;5023829;28;20063;-53
2022/06/19 08:39:50;;;;;;;11.70;2.65;;;;;;;17.19;74.11;101219.06;5023987;28;20037;-56
2022/06/19 08:42:43;;;;;;;11.88;2.50;;;;;;;17.32;73.53;101186.22;5027252;28;20087;-54
2022/06/19 08:45:23;;;;;;;10.50;2.70;;;;;;;17.23;73.38;101178.38;5026279;28;20042;-54
2022/06/19 08:47:57;;;;;;;13.30;2.80;;;;;;;17.15;73.81;101173.13;5023234;28;20049;-53
2022/06/19 08:50:50;;;;;;;10.98;2.20;;;;;;;17.12;73.20;101137.63;5021783;28;20040;-53
2022/06/19 08:53:26;;;;;;;11.40;2.50;;;;;;;16.87;75.09;101139.22;5023888;28;20059;-55
2022/06/19 08:56:05;;;;;;;8.02;2.33;;;;;;;16.96;72.75;101135.78;5033624;28;20033;-53
2022/06/19 08:58:34;;;;;;;13.88;2.30;;;;;;;16.92;72.99;101117.56;5028375;28;20445;-56
2022/06/19 09:01:02;;;;;;;10.25;2.08;;;;;;;16.80;72.73;101118.34;5029991;28;20036;-56
2022/06/19 09:06:32;;;;;;;12.35;2.75;;;;;;;16.84;73.04;101095.00;5044798;28;20676;-49
2022/06/19 09:09:06;;;;;;;9.60;1.85;;;;;;;16.82;74.13;101107.13;5046384;28;20036;-57
2022/06/19 09:11:57;;;;;;;11.98;2.08;;;;;;;16.98;73.78;101126.25;5046497;28;20468;-55
2022/06/19 09:14:33;;;;;;;11.20;2.20;;;;;;;17.02;73.16;101129.75;5049103;28;20043;-56
2022/06/19 09:17:09;;;;;;;12.75;2.50;;;;;;;17.12;73.43;101129.81;5045116;28;20025;-53
2022/06/19 09:19:51;;;;;;;11.90;2.28;;;;;;;17.24;70.54;101156.75;5046731;28;20456;-54
2022/06/19 09:22:26;;;;;;;8.80;1.70;;;;;;;17.36;70.63;101183.66;5043909;28;20013;-55
2022/06/19 09:24:52;;;;;;;9.13;1.98;;;;;;;17.41;69.38;101201.88;5049360;28;20129;-53
2022/06/19 09:27:24;;;;;;;9.52;2.58;;;;;;;17.40;69.25;101210.53;5047171;28;20059;-56
2022/06/19 09:30:00;;;;;;;8.43;1.75;;;;;;;17.43;67.30;101237.44;5052063;28;20404;-55
2022/06/19 09:32:41;;;;;;;7.97;2.03;;;;;;;17.40;64.82;101239.13;5050483;28;20801;-56
2022/06/19 09:35:39;;;;;;;8.90;1.70;;;;;;;17.47;65.78;101251.28;5048631;28;20033;-54
2022/06/19 09:38:15;;;;;;;7.77;1.60;;;;;;;17.47;63.61;101247.81;5037975;28;20548;-58
2022/06/19 09:40:43;;;;;;;7.75;1.50;;;;;;;17.45;64.52;101229.63;5043769;28;20388;-52
2022/06/19 09:43:34;;;;;;;8.60;1.53;;;;;;;17.50;63.12;101227.94;5039345;28;20025;-53
2022/06/19 09:46:05;;;;;;;4.13;1.27;;;;;;;17.56;63.29;101227.97;5039658;28;20113;-52
2022/06/19 09:48:50;;;;;;;8.77;1.70;;;;;;;17.73;63.86;101203.81;5038352;28;20697;-52
2022/06/19 09:51:29;;;;;;;6.25;1.50;;;;;;;17.82;62.97;101198.63;5040356;28;20107;-51
2022/06/19 09:54:02;;;;;;;10.77;1.83;;;;;;;17.87;63.42;101181.31;5046498;28;20089;-54
2022/06/19 09:56:50;;;;;;;11.05;1.80;;;;;;;17.94;63.10;101172.66;5031834;28;20617;-56
2022/06/19 09:59:24;;;;;;;8.90;1.58;;;;;;;18.09;63.13;101172.69;5041931;28;20503;-54
2022/06/19 10:01:57;;;;;;;8.48;1.80;;;;;;;18.08;61.58;101170.06;5043965;28;20039;-56
2022/06/19 10:04:39;;;;;;;7.95;1.92;;;;;;;18.08;61.45;101157.06;5035254;28;20468;-52
2022/06/19 10:07:31;;;;;;;7.78;1.60;;;;;;;18.17;61.41;101154.50;5024685;28;20029;-51
2022/06/19 10:10:01;;;;;;;6.22;1.42;;;;;;;18.18;59.87;101145.81;5024432;28;20045;-57
2022/06/19 10:12:41;;;;;;;11.88;1.83;;;;;;;18.33;59.76;101151.03;5020214;28;20527;-54
2022/06/19 10:15:15;;;;;;;7.82;1.70;;;;;;;18.49;59.32;101146.69;5022964;28;20044;-59
2022/06/19 10:17:51;;;;;;;7.05;1.60;;;;;;;18.66;60.23;101129.31;5023125;28;20088;-58
2022/06/19 10:20:25;;;;;;;5.50;1.45;;;;;;;18.81;57.75;101115.47;5026090;28;20108;-56
2022/06/19 10:23:28;;;;;;;7.72;1.15;;;;;;;18.85;55.87;101118.91;5007531;28;20589;-56
2022/06/19 10:26:29;;;;;;;6.75;1.50;;;;;;;18.99;55.85;101109.34;4989809;28;21863;-58
2022/06/19 10:29:38;;;;;;;7.78;1.45;;;;;;;19.07;55.19;101099.75;5021939;28;20037;-53
2022/06/19 10:32:06;;;;;;;;;;;;;;;19.21;55.83;101102.31;4999714;28;20045;-57
2022/06/19 10:34:58;;;;;;;6.95;1.35;;;;;;;19.21;55.50;101100.56;5023998;28;19917;-57
2022/06/19 10:37:35;;;;;;;4.95;1.40;;;;;;;19.34;55.33;101084.88;5015058;28;20417;-53
2022/06/19 10:40:12;;;;;;;5.85;1.38;;;;;;;19.52;56.34;101095.22;5021909;28;20121;-51
2022/06/19 10:42:50;;;;;;;6.82;1.30;;;;;;;19.65;54.84;101120.41;5023325;28;20032;-55
2022/06/19 10:45:29;;;;;;;5.35;1.33;;;;;;;19.71;54.30;101114.28;5022898;28;20036;-55
2022/06/19 10:48:22;;;;;;;5.07;1.20;;;;;;;19.79;53.91;101100.34;5023958;28;20072;-56
2022/06/19 10:51:00;;;;;;;10.00;1.20;;;;;;;19.88;53.39;101091.56;5027038;28;20029;-56
2022/06/19 10:54:04;;;;;;;3.95;1.10;;;;;;;20.01;54.55;101103.66;5022015;28;20119;-54
2022/06/19 10:56:48;;;;;;;5.45;1.23;;;;;;;19.98;55.62;101118.47;4969540;28;20129;-59
2022/06/19 10:59:13;;;;;;;5.03;1.25;;;;;;;19.99;56.19;101125.44;4966927;28;20121;-57
2022/06/19 11:04:37;;;;;;;5.35;1.27;;;;;;;19.98;53.66;101149.81;5026131;28;20535;-56
2022/06/19 11:07:12;;;;;;;7.93;1.55;;;;;;;20.02;54.01;101162.84;5024086;28;20056;-58
2022/06/19 11:09:54;;;;;;;7.03;1.58;;;;;;;20.03;53.79;101167.19;5024177;28;20449;-60
2022/06/19 11:12:42;;;;;;;5.82;1.20;;;;;;;20.08;53.79;101167.13;5023650;28;20112;-56
2022/06/19 11:15:25;;;;;;;6.38;1.40;;;;;;;20.07;54.31;101170.63;5030751;28;20339;-52
2022/06/19 11:18:11;;;;;;;7.78;1.77;;;;;;;20.18;54.13;101162.72;5026727;28;20038;-54
2022/06/19 11:20:38;;;;;;;5.35;1.20;;;;;;;20.18;53.67;101166.19;5025481;28;20051;-57
2022/06/19 11:23:27;;;;;;;5.65;1.30;;;;;;;20.27;54.26;101173.13;5008846;28;20025;-58
2022/06/19 11:26:19;;;;;;;5.55;1.48;;;;;;;20.19;53.42;101182.72;5029055;28;20092;-58
2022/06/19 11:28:57;;;;;;;9.70;1.63;;;;;;;20.22;53.69;101203.63;5018492;28;20049;-59
2022/06/19 11:31:36;;;;;;;6.30;1.50;;;;;;;20.22;53.39;101217.53;5008402;28;20477;-57
2022/06/19 11:37:23;;;;;;;7.32;1.67;;;;;;;20.27;54.86;101202.72;5028168;28;20167;-57
2022/06/19 11:40:14;;;;;;;5.85;1.63;;;;;;;20.32;54.67;101213.09;5023667;28;20544;-55
2022/06/19 11:42:53;;;;;;;7.20;1.85;;;;;;;20.30;55.35;101213.13;5029627;28;20017;-54
2022/06/19 11:45:18;;;;;;;7.78;2.15;;;;;;;20.27;55.08;101212.28;5030376;28;20025;-55
2022/06/19 11:47:55;;;;;;;6.53;2.05;;;;;;;20.30;55.80;101197.44;5026682;28;20033;-59
2022/06/19 11:50:35;;;;;;;5.93;1.90;;;;;;;20.38;56.25;101196.53;5024712;28;20076;-58
2022/06/19 11:53:09;;;;;;;8.48;2.30;;;;;;;20.47;56.98;101191.28;5031083;28;20029;-58